Alice Town, Bahamas

8:38 AM EST on March 03, 2015 (GMT -0500)
Fort Lauderdale-Hollywood International | Change Station
CLOSE
Current Station
Airport
Location: Ft Lauderdale,
Elevation: 10 ft
Nearby Weather Stations

Elev 10 ft 26.07 °N, 80.15 °W | Updated 45 minutes ago

Scattered Clouds
Scattered Clouds
74 °F
Feels Like 74 °F
N
12
Wind Variable Wind from East

Today
High -- | Low -- °F
--% Chance of Precip.
Yesterday
High -- | Low -- °F
Precip. -- in
6:38 AM 6:19 PM
Waxing Gibbous, 96% visible
Pressure 30.19 in
Visibility 10.0 miles
Clouds Scattered Clouds 2500 ft
Dew Point 67 °F
Humidity 79%
Rainfall 0.00 in
Snow Depth Not available.
UV 1 out of 12
Pollen Not available.
Air Quality Not available.
Flu Activity Not available.
METAR KFLL 031253Z 08010KT 10SM SCT025 23/19 A3019 RMK AO2 SLP223 T02330194

More Conditions Fewer Conditions

Pressure 30.19 in
Visibility 10.0 miles
Clouds Scattered Clouds 2500 ft
Dew Point 67 °F
Humidity 79%
Rainfall 0.00 in
Snow Depth Not available.
UV 1 out of 12
Pollen Not available.
Air Quality Not available.
Flu Activity Not available.
METAR KFLL 031253Z 08010KT 10SM SCT025 23/19 A3019 RMK AO2 SLP223 T02330194

More Conditions Fewer Conditions

10-Day Weather Forecast

Almanac

Astronomy

Mar. 03, 2015 Rise Set
Actual Time
Civil Twilight
Nautical Twilight
Astronomical Twilight
Moon
Length of Visible Light
Length of Day
Tomorrow will be .
, % of the Moon is Illuminated

Today's Extremes

Country Highs Country Lows

Community

WunderPhotos

Upload Photos

1,802,101 photos uploaded!

WunderBlogs® & News

Nearby

Air Quality

  Air Quality AQ Index Pollutant
Not available.

Snow Depth

Station Depth Elevation

Earthquake Activity

City Distance Mag. Time & Date
Minimum magnitude displayed is 2.5.

Coastal Water Temperatures

Place Temperature

Nearby Weather Stations